Time;durP1;ratioP1;P1;durP2;ratioP2;P2;SDS_P1;SDS_P2;PMS_P1;PMS_P2;Temp;Humidity;BMP_temperature;BMP_pressure;BME280_temperature;BME280_humidity;BME280_pressure;Samples;Min_cycle;Max_cycle;Signal;HPM_P1;HPM_P2
2022/11/03 00:01:51;;;;;;;9.05;1.60;;;10.70;99.90;;;;;;6185049;23;20048;-86
2022/11/03 00:04:19;;;;;;;14.13;2.10;;;10.70;99.90;;;;;;6183826;23;20095;-85
2022/11/03 00:06:48;;;;;;;10.25;1.90;;;10.70;99.90;;;;;;6184107;23;20020;-86
2022/11/03 00:09:15;;;;;;;9.43;1.73;;;10.70;99.90;;;;;;6185341;23;20024;-84
2022/11/03 00:11:43;;;;;;;8.10;2.15;;;10.70;99.90;;;;;;6186338;23;20010;-85
2022/11/03 00:14:09;;;;;;;11.95;1.92;;;10.70;99.90;;;;;;6185978;23;20036;-86
2022/11/03 00:16:36;;;;;;;11.70;1.77;;;10.70;99.90;;;;;;6184148;23;20025;-85
2022/11/03 00:19:02;;;;;;;15.48;2.47;;;10.70;99.90;;;;;;6183541;23;20012;-86
2022/11/03 00:21:29;;;;;;;12.52;2.42;;;10.80;99.90;;;;;;6185029;23;20028;-85
2022/11/03 00:23:55;;;;;;;11.27;1.83;;;10.80;99.90;;;;;;6183896;23;20017;-86
2022/11/03 00:26:23;;;;;;;9.85;1.77;;;10.80;99.90;;;;;;6185758;23;20040;-86
2022/11/03 00:28:50;;;;;;;10.10;2.42;;;10.80;99.90;;;;;;6184260;23;20021;-86
2022/11/03 00:31:19;;;;;;;15.25;2.35;;;10.80;99.90;;;;;;6185911;23;20013;-85
2022/11/03 00:33:46;;;;;;;13.02;2.15;;;10.80;99.90;;;;;;6185238;23;20013;-84
2022/11/03 00:36:22;;;;;;;12.57;2.05;;;10.70;99.90;;;;;;6183736;23;20015;-85
2022/11/03 00:38:48;;;;;;;8.30;1.60;;;10.70;99.90;;;;;;6194917;23;20647;-86
2022/11/03 00:41:15;;;;;;;12.80;2.30;;;10.70;99.90;;;;;;6214592;23;20039;-85
2022/11/03 00:43:40;;;;;;;12.02;1.50;;;10.70;99.90;;;;;;6188969;23;20013;-85
2022/11/03 00:46:07;;;;;;;12.82;1.95;;;10.70;99.90;;;;;;6189425;23;20206;-86
2022/11/03 00:48:35;;;;;;;9.85;2.10;;;10.70;99.90;;;;;;6214365;23;20013;-85
2022/11/03 00:51:04;;;;;;;9.55;2.00;;;10.90;99.90;;;;;;6189083;23;20019;-86
2022/11/03 00:53:30;;;;;;;16.08;2.90;;;10.70;99.90;;;;;;6214912;23;20016;-86
2022/11/03 00:55:56;;;;;;;12.45;2.38;;;10.70;99.90;;;;;;6216002;23;20047;-85
2022/11/03 00:58:22;;;;;;;10.30;1.75;;;10.70;99.90;;;;;;6189067;23;20017;-86
2022/11/03 01:00:47;;;;;;;9.20;1.73;;;10.70;99.90;;;;;;6215961;23;20023;-86
2022/11/03 01:03:13;;;;;;;9.77;1.50;;;10.60;99.90;;;;;;6163389;23;20017;-86
2022/11/03 01:08:32;;;;;;;11.80;1.83;;;10.60;99.90;;;;;;6215745;23;20021;-86
2022/11/03 01:13:49;;;;;;;13.52;2.50;;;10.60;99.90;;;;;;6215177;23;20027;-86
2022/11/03 01:16:15;;;;;;;11.32;1.92;;;10.60;99.90;;;;;;6188413;23;20016;-85
2022/11/03 01:18:40;;;;;;;14.07;1.85;;;10.60;99.90;;;;;;6188885;23;20333;-86
2022/11/03 01:21:06;;;;;;;9.77;1.80;;;10.60;99.90;;;;;;6216126;23;20040;-86
2022/11/03 01:23:34;;;;;;;12.93;2.22;;;10.50;99.90;;;;;;6215088;23;20009;-85
2022/11/03 01:26:04;;;;;;;10.15;2.40;;;10.50;99.90;;;;;;6188307;23;20092;-85
2022/11/03 01:28:30;;;;;;;9.25;1.85;;;10.40;99.90;;;;;;6188726;23;20388;-85
2022/11/03 01:31:00;;;;;;;11.75;2.10;;;10.40;99.90;;;;;;6215064;23;20020;-86
2022/11/03 01:33:26;;;;;;;10.20;1.42;;;10.40;99.90;;;;;;6189381;23;20632;-86
2022/11/03 01:35:52;;;;;;;7.45;1.63;;;10.40;99.90;;;;;;6215140;23;20020;-85
2022/11/03 01:38:18;;;;;;;13.93;2.33;;;10.40;99.90;;;;;;6187335;23;20334;-86
2022/11/03 01:40:43;;;;;;;13.50;1.90;;;10.40;99.90;;;;;;6188553;23;20029;-85
2022/11/03 01:43:21;;;;;;;12.48;3.25;;;10.30;99.90;;;;;;6215647;23;20012;-86
2022/11/03 01:45:50;;;;;;;13.07;2.25;;;10.40;99.90;;;;;;6187894;23;20088;-86
2022/11/03 01:48:18;;;;;;;8.60;2.03;;;10.30;99.90;;;;;;6188615;23;20036;-86
2022/11/03 01:50:46;;;;;;;13.85;2.00;;;10.30;99.90;;;;;;6216020;23;20050;-85
2022/11/03 01:53:13;;;;;;;9.30;2.17;;;10.30;99.90;;;;;;6213347;23;20188;-86
2022/11/03 01:55:39;;;;;;;13.05;2.20;;;10.30;99.90;;;;;;6188415;23;20048;-85
2022/11/03 01:58:16;;;;;;;13.57;1.85;;;10.30;99.90;;;;;;6188159;23;20020;-85
2022/11/03 02:00:44;;;;;;;10.77;1.80;;;10.30;99.90;;;;;;6188100;23;20084;-85
2022/11/03 02:03:10;;;;;;;14.18;3.22;;;10.20;99.90;;;;;;6188972;23;20027;-86
2022/11/03 02:05:36;;;;;;;17.33;2.65;;;10.20;99.90;;;;;;6215461;23;20028;-85
2022/11/03 02:08:14;;;;;;;15.32;1.83;;;10.20;99.90;;;;;;6188317;23;20016;-85
2022/11/03 02:10:39;;;;;;;11.23;2.42;;;10.20;99.90;;;;;;6215798;23;20017;-86
2022/11/03 02:13:16;;;;;;;16.60;2.42;;;10.20;99.90;;;;;;6188833;23;20020;-85
2022/11/03 02:15:43;;;;;;;12.00;2.33;;;10.20;99.90;;;;;;6214793;23;20452;-85
2022/11/03 02:18:11;;;;;;;7.10;1.77;;;10.30;99.90;;;;;;6188086;23;20058;-85
2022/11/03 02:20:38;;;;;;;13.82;2.60;;;10.20;99.90;;;;;;6188516;23;20020;-85
2022/11/03 02:23:23;;;;;;;13.02;2.65;;;10.20;99.90;;;;;;6215135;23;20021;-85
2022/11/03 02:25:50;;;;;;;9.52;1.80;;;10.20;99.90;;;;;;6215187;23;20025;-85
2022/11/03 02:28:24;;;;;;;15.82;2.40;;;10.20;99.90;;;;;;6187758;23;20012;-85
2022/11/03 02:31:13;;;;;;;10.32;1.88;;;10.20;99.90;;;;;;6215311;23;20048;-85
2022/11/03 02:34:25;;;;;;;14.07;2.60;;;10.20;99.90;;;;;;6188606;23;20017;-86
2022/11/03 02:37:11;;;;;;;12.60;2.10;;;10.20;99.90;;;;;;6040731;23;20026;-85
2022/11/03 02:39:44;;;;;;;8.27;2.40;;;10.30;99.90;;;;;;6062808;23;20027;-85
2022/11/03 02:42:12;;;;;;;9.48;2.25;;;10.20;99.90;;;;;;6040151;23;20026;-85
2022/11/03 02:44:38;;;;;;;9.52;1.67;;;10.20;99.90;;;;;;6040325;23;20459;-84
2022/11/03 02:47:08;;;;;;;12.32;2.47;;;10.20;99.90;;;;;;6040304;23;20026;-86
2022/11/03 02:49:46;;;;;;;10.20;2.00;;;10.20;99.90;;;;;;6015601;23;20046;-85
2022/11/03 02:52:33;;;;;;;10.80;2.30;;;10.30;99.90;;;;;;6016027;23;20121;-85
2022/11/03 02:55:05;;;;;;;10.38;2.50;;;10.30;99.90;;;;;;6039969;23;20347;-85
2022/11/03 02:57:34;;;;;;;11.75;1.98;;;10.30;99.90;;;;;;6039560;23;20019;-85
2022/11/03 03:00:08;;;;;;;8.98;2.10;;;10.30;99.90;;;;;;6063851;23;20015;-86
2022/11/03 03:03:01;;;;;;;15.85;2.80;;;10.40;99.90;;;;;;6040037;23;20097;-85
2022/11/03 03:05:30;;;;;;;14.23;2.70;;;10.40;99.90;;;;;;6064278;23;20019;-85
2022/11/03 03:08:04;;;;;;;11.82;2.47;;;10.40;99.90;;;;;;6141847;23;20017;-85
2022/11/03 03:10:32;;;;;;;;;;;10.50;99.90;;;;;;6187898;23;20455;-85
2022/11/03 03:12:59;;;;;;;10.65;2.17;;;10.40;99.90;;;;;;6214032;23;19994;-86
2022/11/03 03:15:55;;;;;;;10.63;2.10;;;10.40;99.90;;;;;;6214290;23;20102;-85
2022/11/03 03:18:37;;;;;;;10.52;2.10;;;10.40;99.90;;;;;;6204453;23;20019;-85
2022/11/03 03:21:11;;;;;;;12.98;1.88;;;10.40;99.90;;;;;;6189862;23;20054;-86
2022/11/03 03:23:46;;;;;;;10.02;1.83;;;10.40;99.90;;;;;;6216029;23;20019;-85
2022/11/03 03:26:35;;;;;;;8.07;1.90;;;10.40;99.90;;;;;;6189140;23;20012;-85
2022/11/03 03:29:12;;;;;;;13.05;2.63;;;10.50;99.90;;;;;;6189688;23;20021;-85
2022/11/03 03:31:42;;;;;;;8.65;2.15;;;10.50;99.90;;;;;;6189068;23;20504;-85
2022/11/03 03:34:09;;;;;;;10.30;1.90;;;10.60;99.90;;;;;;6216741;23;20004;-85
2022/11/03 03:36:39;;;;;;;8.15;1.58;;;10.50;99.90;;;;;;6188921;23;20027;-85
2022/11/03 03:39:07;;;;;;;12.02;2.10;;;10.50;99.90;;;;;;6213805;23;20075;-85
2022/11/03 03:41:34;;;;;;;9.13;1.77;;;10.50;99.90;;;;;;6215440;23;20404;-85
2022/11/03 03:44:05;;;;;;;12.00;2.40;;;10.50;99.90;;;;;;6165271;23;20012;-85
2022/11/03 03:46:57;;;;;;;12.00;2.00;;;10.50;99.90;;;;;;6164704;23;20388;-85
2022/11/03 03:49:22;;;;;;;9.32;2.22;;;10.60;99.90;;;;;;6189998;23;20016;-84
2022/11/03 03:51:49;;;;;;;10.60;2.05;;;10.50;99.90;;;;;;6189508;23;20430;-86
2022/11/03 03:54:15;;;;;;;13.25;2.67;;;10.50;99.90;;;;;;6164818;23;20044;-85
2022/11/03 03:56:52;;;;;;;14.82;2.95;;;10.50;99.90;;;;;;6215841;23;20024;-85
2022/11/03 03:59:18;;;;;;;13.77;1.95;;;10.50;99.90;;;;;;6189028;23;20079;-85
2022/11/03 04:01:43;;;;;;;10.65;2.30;;;10.50;99.90;;;;;;6189733;23;21020;-86
2022/11/03 04:04:09;;;;;;;13.02;2.30;;;10.50;99.90;;;;;;6189740;23;20019;-85
2022/11/03 04:06:35;;;;;;;12.30;2.08;;;10.40;99.90;;;;;;6216334;23;20187;-85
2022/11/03 04:09:00;;;;;;;11.52;2.50;;;10.50;99.90;;;;;;6189149;23;20013;-85
2022/11/03 04:22:25;;;;;;;10.70;2.92;;;10.80;99.90;;;;;;6215055;23;20075;-85
2022/11/03 04:24:51;;;;;;;10.13;2.13;;;10.30;99.90;;;;;;6215306;23;20030;-85
2022/11/03 04:27:35;;;;;;;19.17;2.10;;;10.30;99.90;;;;;;6214642;23;20009;-85
2022/11/03 04:30:11;;;;;;;7.82;1.50;;;10.30;99.90;;;;;;6188539;23;20016;-85
2022/11/03 04:32:37;;;;;;;11.82;1.98;;;10.30;99.90;;;;;;6214865;23;20472;-85
2022/11/03 04:35:23;;;;;;;10.23;1.98;;;10.30;99.90;;;;;;6189005;23;20020;-84
2022/11/03 04:37:59;;;;;;;14.00;2.20;;;10.30;99.90;;;;;;6214212;23;20051;-85
2022/11/03 04:40:26;;;;;;;10.05;2.03;;;10.30;99.90;;;;;;6186989;23;20094;-85
2022/11/03 04:42:52;;;;;;;8.35;2.40;;;10.30;99.90;;;;;;6163241;23;20083;-85
2022/11/03 04:45:32;;;;;;;13.98;2.45;;;10.30;99.90;;;;;;6188790;23;20063;-85
2022/11/03 04:48:04;;;;;;;8.63;2.40;;;10.20;99.90;;;;;;6215815;23;20461;-85
2022/11/03 04:50:30;;;;;;;9.52;2.17;;;10.30;99.90;;;;;;6215075;23;20380;-85
2022/11/03 04:52:57;;;;;;;8.38;1.52;;;10.30;99.90;;;;;;6189038;23;20088;-84
2022/11/03 04:55:23;;;;;;;13.07;2.35;;;10.30;99.90;;;;;;6188661;23;20064;-85
2022/11/03 04:57:56;;;;;;;11.95;2.03;;;10.40;99.90;;;;;;6215750;23;20024;-85
2022/11/03 05:00:22;;;;;;;15.48;3.03;;;10.40;99.90;;;;;;6215747;23;20512;-85
2022/11/03 05:02:49;;;;;;;14.70;2.65;;;10.40;99.90;;;;;;6188460;23;20040;-84
2022/11/03 05:05:21;;;;;;;10.85;2.15;;;10.40;99.90;;;;;;6215034;23;20066;-85
2022/11/03 05:07:55;;;;;;;10.70;2.33;;;10.40;99.90;;;;;;6214117;23;20027;-86
2022/11/03 05:10:26;;;;;;;11.55;1.98;;;10.40;99.90;;;;;;6188506;23;20062;-85
2022/11/03 05:12:56;;;;;;;13.90;2.30;;;10.40;99.90;;;;;;6163198;23;20065;-85
2022/11/03 05:15:41;;;;;;;8.18;2.20;;;10.40;99.90;;;;;;6163462;23;20088;-85
2022/11/03 05:18:17;;;;;;;12.93;2.08;;;10.40;99.90;;;;;;6187958;23;20024;-85
2022/11/03 05:20:50;;;;;;;9.90;1.80;;;10.40;99.90;;;;;;6188380;23;20016;-86
2022/11/03 05:23:17;;;;;;;12.65;2.20;;;10.50;99.90;;;;;;6215307;23;20020;-85
2022/11/03 05:25:46;;;;;;;16.48;3.08;;;10.40;99.90;;;;;;6188373;23;20015;-84
2022/11/03 05:28:23;;;;;;;12.88;2.47;;;10.40;99.90;;;;;;6163446;23;20055;-86
2022/11/03 05:30:50;;;;;;;10.63;2.08;;;10.40;99.90;;;;;;6188294;23;20507;-85
2022/11/03 05:33:32;;;;;;;11.23;2.50;;;10.40;99.90;;;;;;6188340;23;20087;-85
2022/11/03 05:36:04;;;;;;;7.32;1.58;;;10.40;99.90;;;;;;6188165;23;20025;-85
2022/11/03 05:38:32;;;;;;;12.57;2.28;;;10.40;99.90;;;;;;6187468;23;20449;-85
2022/11/03 05:40:58;;;;;;;9.32;2.05;;;10.40;99.90;;;;;;6215064;23;20341;-85
2022/11/03 05:43:25;;;;;;;11.93;2.40;;;10.40;99.90;;;;;;6215973;23;20013;-85
2022/11/03 05:45:54;;;;;;;11.77;2.22;;;10.40;99.90;;;;;;6215512;23;20016;-85
2022/11/03 05:48:32;;;;;;;18.08;3.15;;;10.40;99.90;;;;;;6188679;23;20016;-85
2022/11/03 05:50:59;;;;;;;13.82;2.47;;;10.40;99.90;;;;;;6188479;23;20023;-86
2022/11/03 05:53:30;;;;;;;12.30;2.15;;;10.40;99.90;;;;;;6186312;23;20020;-85
2022/11/03 05:56:02;;;;;;;10.00;2.40;;;10.40;99.90;;;;;;6187340;23;20038;-86
2022/11/03 05:58:35;;;;;;;8.52;2.00;;;10.50;99.90;;;;;;6186936;23;20471;-85
2022/11/03 06:01:09;;;;;;;12.25;2.30;;;10.50;99.90;;;;;;6187167;23;20031;-85
2022/11/03 06:03:35;;;;;;;14.10;2.38;;;10.50;99.90;;;;;;6214048;23;20088;-83
2022/11/03 06:06:01;;;;;;;11.27;2.17;;;10.50;99.90;;;;;;6187106;23;20021;-85
2022/11/03 06:08:32;;;;;;;12.82;2.50;;;10.60;99.90;;;;;;6213942;23;20021;-85
2022/11/03 06:11:00;;;;;;;10.32;2.17;;;10.60;99.90;;;;;;6213605;23;20017;-84
2022/11/03 06:13:34;;;;;;;7.25;2.13;;;10.50;99.90;;;;;;6189057;23;20052;-85
2022/11/03 06:16:34;;;;;;;13.77;2.13;;;10.50;99.90;;;;;;6187085;23;20016;-85
2022/11/03 06:19:32;;;;;;;13.07;2.10;;;10.50;99.90;;;;;;6213114;23;20032;-83
2022/11/03 06:22:05;;;;;;;12.88;2.35;;;10.40;99.90;;;;;;6180834;23;20017;-86
2022/11/03 06:24:33;;;;;;;11.27;1.85;;;10.40;99.90;;;;;;6187314;23;20013;-85
2022/11/03 06:26:58;;;;;;;11.18;2.10;;;10.40;99.90;;;;;;6186014;23;20016;-85
2022/11/03 06:29:24;;;;;;;13.88;2.70;;;10.50;99.90;;;;;;6185631;23;20103;-87
2022/11/03 06:31:54;;;;;;;13.10;2.42;;;10.50;99.90;;;;;;6161291;23;20012;-85
2022/11/03 06:34:25;;;;;;;7.53;1.98;;;10.50;99.90;;;;;;6185763;23;20064;-84
2022/11/03 06:36:51;;;;;;;11.85;2.40;;;10.50;99.90;;;;;;6160039;23;20265;-85
2022/11/03 06:39:22;;;;;;;17.08;2.45;;;10.50;99.90;;;;;;6184430;23;20423;-85
2022/11/03 06:41:49;;;;;;;10.52;2.15;;;10.50;99.90;;;;;;6160675;23;20352;-84
2022/11/03 06:44:23;;;;;;;10.27;2.15;;;10.50;99.90;;;;;;6212922;23;20425;-85
2022/11/03 06:46:49;;;;;;;8.93;2.37;;;10.50;99.90;;;;;;6186248;23;20079;-85
2022/11/03 06:49:28;;;;;;;15.10;2.70;;;10.50;99.90;;;;;;6185632;23;20263;-84
2022/11/03 06:51:55;;;;;;;15.00;2.58;;;10.50;99.90;;;;;;6213066;23;20024;-86
2022/11/03 06:54:21;;;;;;;15.98;2.67;;;10.50;99.90;;;;;;6186831;23;20044;-84
2022/11/03 06:56:47;;;;;;;11.27;2.40;;;10.50;99.90;;;;;;6186846;23;20027;-85
2022/11/03 06:59:14;;;;;;;10.50;2.22;;;10.50;99.90;;;;;;6211738;23;20058;-85
2022/11/03 07:01:40;;;;;;;14.25;2.65;;;10.50;99.90;;;;;;6159990;23;20090;-85
2022/11/03 07:04:17;;;;;;;9.98;2.70;;;10.50;99.90;;;;;;6183668;23;20012;-82
2022/11/03 07:06:43;;;;;;;11.50;2.65;;;10.50;99.90;;;;;;6156316;23;20505;-83
2022/11/03 07:09:26;;;;;;;10.43;3.25;;;10.60;99.90;;;;;;6210555;23;20016;-82
2022/11/03 07:11:56;;;;;;;9.68;2.58;;;10.50;99.90;;;;;;6183363;23;20036;-82
2022/11/03 07:14:26;;;;;;;8.80;2.20;;;10.60;99.90;;;;;;6158151;23;20012;-83
2022/11/03 07:16:59;;;;;;;8.45;2.67;;;10.60;99.90;;;;;;6181495;23;20078;-82
2022/11/03 07:19:27;;;;;;;10.40;2.35;;;11.10;99.90;;;;;;6182377;23;20016;-82
2022/11/03 07:21:57;;;;;;;11.00;2.30;;;10.70;99.90;;;;;;6182872;23;20469;-84
2022/11/03 07:24:24;;;;;;;12.32;2.75;;;10.70;99.90;;;;;;6182454;23;20022;-86
2022/11/03 07:27:01;;;;;;;10.43;2.75;;;10.70;99.90;;;;;;6182372;23;20044;-85
2022/11/03 07:29:30;;;;;;;12.10;2.67;;;10.80;99.90;;;;;;6210091;23;20013;-86
2022/11/03 07:31:58;;;;;;;8.75;2.00;;;10.80;99.90;;;;;;6209681;23;20008;-85
2022/11/03 07:34:28;;;;;;;14.60;2.88;;;10.80;99.90;;;;;;6208675;23;20020;-85
2022/11/03 07:36:56;;;;;;;10.63;2.38;;;10.90;99.90;;;;;;6182496;23;20031;-86
2022/11/03 07:39:21;;;;;;;13.57;2.58;;;10.90;99.90;;;;;;6205926;23;20023;-85
2022/11/03 07:41:47;;;;;;;12.23;2.33;;;11.00;99.90;;;;;;6182128;23;20017;-85
2022/11/03 07:44:19;;;;;;;11.57;2.47;;;11.10;99.90;;;;;;6209780;23;20009;-85
2022/11/03 07:46:46;;;;;;;13.68;2.80;;;11.10;99.90;;;;;;6181977;23;20095;-85
2022/11/03 07:49:28;;;;;;;13.30;2.80;;;11.10;99.90;;;;;;6156783;23;20044;-86
2022/11/03 07:51:57;;;;;;;8.98;2.35;;;11.20;99.90;;;;;;6209276;23;20016;-87
2022/11/03 07:54:27;;;;;;;13.30;2.45;;;11.20;99.90;;;;;;6181399;23;20012;-86
2022/11/03 07:57:04;;;;;;;6.28;2.15;;;11.30;99.90;;;;;;6158069;23;20460;-86
2022/11/03 07:59:36;;;;;;;8.38;2.45;;;11.30;99.90;;;;;;6208558;23;20016;-87
2022/11/03 08:02:12;;;;;;;10.68;2.65;;;11.30;99.90;;;;;;6182779;23;20080;-87
2022/11/03 08:04:37;;;;;;;11.75;2.40;;;11.40;99.90;;;;;;6209781;23;20556;-86
2022/11/03 08:07:03;;;;;;;11.52;2.80;;;11.40;99.90;;;;;;6181594;23;20017;-87
2022/11/03 08:09:28;;;;;;;12.57;2.85;;;11.50;99.90;;;;;;6207596;23;20337;-86
2022/11/03 08:11:54;;;;;;;10.10;2.35;;;11.50;99.90;;;;;;6210233;23;20584;-86
2022/11/03 08:14:20;;;;;;;9.60;2.60;;;11.60;99.90;;;;;;6209686;23;20080;-86
2022/11/03 08:16:45;;;;;;;13.07;2.65;;;11.70;99.90;;;;;;6210878;23;20009;-86
2022/11/03 08:19:11;;;;;;;12.02;2.50;;;11.70;99.90;;;;;;6212033;23;20016;-86
2022/11/03 08:21:37;;;;;;;10.60;2.33;;;11.80;99.90;;;;;;6185498;23;20016;-86
2022/11/03 08:24:03;;;;;;;12.43;2.22;;;11.80;99.90;;;;;;6184656;23;20071;-85
2022/11/03 08:26:29;;;;;;;10.13;2.80;;;11.90;99.90;;;;;;6178923;23;20599;-86
2022/11/03 08:28:54;;;;;;;9.20;2.22;;;11.90;99.90;;;;;;6209788;23;20047;-86
2022/11/03 08:31:20;;;;;;;8.00;2.50;;;12.00;99.90;;;;;;6183412;23;20016;-86
2022/11/03 08:33:45;;;;;;;9.57;2.47;;;12.10;99.90;;;;;;6212084;23;20040;-86
2022/11/03 08:36:11;;;;;;;13.85;2.58;;;12.10;99.90;;;;;;6185006;23;20421;-85
2022/11/03 08:38:37;;;;;;;10.23;2.05;;;12.20;99.90;;;;;;6160087;23;20044;-86
2022/11/03 08:41:03;;;;;;;13.52;2.88;;;12.20;99.90;;;;;;6185582;23;20009;-86
2022/11/03 08:43:29;;;;;;;13.48;2.45;;;12.20;99.90;;;;;;6183594;23;20096;-86
2022/11/03 08:45:54;;;;;;;10.25;2.25;;;12.20;99.90;;;;;;6210972;23;20040;-85
2022/11/03 08:48:28;;;;;;;9.80;2.55;;;12.20;99.90;;;;;;6212303;23;20079;-86
2022/11/03 08:50:54;;;;;;;12.20;2.15;;;12.20;99.90;;;;;;6185202;23;20013;-86
2022/11/03 08:53:24;;;;;;;11.52;2.53;;;12.50;99.90;;;;;;6184175;23;20009;-86
2022/11/03 08:55:54;;;;;;;10.80;2.67;;;12.20;99.90;;;;;;6211911;23;20009;-86
2022/11/03 08:58:20;;;;;;;12.82;2.60;;;12.20;99.90;;;;;;6210870;23;20031;-84
2022/11/03 09:00:46;;;;;;;10.77;3.00;;;12.20;99.90;;;;;;6210828;23;20017;-84
2022/11/03 09:03:12;;;;;;;13.40;2.58;;;12.20;99.90;;;;;;6211856;23;20337;-83
2022/11/03 09:05:38;;;;;;;9.70;2.35;;;12.30;99.90;;;;;;6211853;23;20012;-84
2022/11/03 09:08:04;;;;;;;13.05;2.83;;;12.30;99.90;;;;;;6184232;23;20032;-82
2022/11/03 09:10:29;;;;;;;11.48;2.47;;;12.40;99.90;;;;;;6185056;23;20429;-82
2022/11/03 09:12:55;;;;;;;15.52;2.95;;;12.40;99.90;;;;;;6184644;23;20040;-84
2022/11/03 09:15:21;;;;;;;12.85;2.50;;;12.50;99.90;;;;;;6158069;23;20019;-84
2022/11/03 09:17:46;;;;;;;11.65;2.60;;;12.50;99.90;;;;;;6209924;23;20070;-83
2022/11/03 09:20:12;;;;;;;11.85;2.60;;;12.60;99.90;;;;;;6209869;23;20019;-83
2022/11/03 09:22:38;;;;;;;11.82;3.03;;;12.60;99.90;;;;;;6183357;23;20628;-83
2022/11/03 09:25:04;;;;;;;11.50;2.40;;;12.70;99.90;;;;;;6181780;23;20025;-82
2022/11/03 09:27:30;;;;;;;12.02;2.78;;;12.70;99.90;;;;;;6183343;23;20013;-82
2022/11/03 09:29:56;;;;;;;11.38;3.47;;;12.80;99.90;;;;;;6181968;23;20024;-83
2022/11/03 09:32:21;;;;;;;10.43;2.90;;;12.80;99.90;;;;;;6210734;23;20008;-83
2022/11/03 09:34:47;;;;;;;9.00;2.25;;;12.90;99.90;;;;;;6181610;23;20063;-85
2022/11/03 09:37:13;;;;;;;11.85;2.85;;;13.00;99.90;;;;;;6157151;23;20013;-82
2022/11/03 09:39:38;;;;;;;11.55;3.05;;;13.10;99.90;;;;;;6183183;23;20027;-82
2022/11/03 09:42:04;;;;;;;11.05;2.20;;;13.10;99.90;;;;;;6209838;23;20106;-83
2022/11/03 09:44:33;;;;;;;14.23;3.80;;;13.10;99.90;;;;;;6209110;23;20052;-82
2022/11/03 09:46:59;;;;;;;14.57;3.25;;;13.20;99.90;;;;;;6182390;23;20806;-83
2022/11/03 09:49:27;;;;;;;11.52;2.72;;;13.20;99.90;;;;;;6181864;23;20019;-84
2022/11/03 09:51:54;;;;;;;13.43;2.45;;;13.30;99.90;;;;;;6208573;23;20071;-82
2022/11/03 09:54:20;;;;;;;14.80;2.80;;;13.40;99.90;;;;;;6181089;23;20437;-83
2022/11/03 09:56:46;;;;;;;11.70;2.47;;;13.60;99.90;;;;;;6181611;23;20180;-82
2022/11/03 09:59:20;;;;;;;12.45;2.15;;;13.60;99.90;;;;;;6207354;23;20412;-83
2022/11/03 10:01:48;;;;;;;10.53;2.93;;;13.70;99.90;;;;;;6208778;23;20021;-82
2022/11/03 10:04:26;;;;;;;8.88;2.05;;;13.80;99.90;;;;;;6183018;23;20091;-82
2022/11/03 10:06:53;;;;;;;10.00;2.70;;;13.80;99.90;;;;;;6183336;23;20025;-82
2022/11/03 10:09:22;;;;;;;8.77;2.40;;;14.00;99.90;;;;;;6183490;23;20020;-83
2022/11/03 10:11:50;;;;;;;11.82;2.88;;;14.20;99.90;;;;;;6210033;23;20012;-82
2022/11/03 10:14:17;;;;;;;13.13;2.03;;;14.20;99.90;;;;;;6209610;23;20042;-83
2022/11/03 10:16:55;;;;;;;13.73;2.78;;;14.30;99.90;;;;;;6210876;23;20052;-82
2022/11/03 10:19:23;;;;;;;13.48;2.78;;;14.30;99.90;;;;;;6182860;23;20364;-83
2022/11/03 10:21:50;;;;;;;11.20;3.00;;;14.30;99.90;;;;;;6183156;23;20083;-82
2022/11/03 10:24:16;;;;;;;12.05;2.90;;;14.40;99.90;;;;;;6184186;23;20228;-83
2022/11/03 10:26:46;;;;;;;9.63;2.20;;;14.30;99.90;;;;;;6159147;23;20456;-83
2022/11/03 10:29:24;;;;;;;14.35;2.67;;;14.30;99.90;;;;;;6184258;23;20027;-83
2022/11/03 10:31:52;;;;;;;10.00;2.13;;;14.30;99.90;;;;;;6184101;23;20016;-83
2022/11/03 10:34:38;;;;;;;11.88;3.55;;;14.30;99.90;;;;;;6183906;23;20337;-82
2022/11/03 10:37:16;;;;;;;11.68;2.35;;;14.40;99.90;;;;;;6183972;23;20017;-83
2022/11/03 10:39:44;;;;;;;8.60;2.03;;;14.50;99.90;;;;;;6210496;23;20012;-84
2022/11/03 10:42:18;;;;;;;8.18;2.33;;;14.60;99.90;;;;;;6210516;23;20020;-82
2022/11/03 10:44:43;;;;;;;6.50;1.92;;;14.90;99.90;;;;;;6184048;23;20009;-83
2022/11/03 10:47:22;;;;;;;14.70;3.35;;;15.10;99.90;;;;;;6184013;23;20028;-83
2022/11/03 10:49:47;;;;;;;10.73;2.83;;;15.30;99.90;;;;;;6183944;23;20042;-83
2022/11/03 10:52:28;;;;;;;9.93;2.00;;;15.40;99.90;;;;;;6183939;23;20616;-83
2022/11/03 10:54:57;;;;;;;9.10;2.20;;;15.50;99.90;;;;;;6184017;23;20048;-83
2022/11/03 10:57:23;;;;;;;13.18;2.30;;;15.50;99.90;;;;;;6209743;23;20079;-83
2022/11/03 10:59:52;;;;;;;8.88;2.25;;;15.40;99.90;;;;;;6183332;23;20017;-83
2022/11/03 11:02:30;;;;;;;8.27;2.00;;;15.60;99.90;;;;;;6210359;23;20017;-83
2022/11/03 11:05:00;;;;;;;10.95;1.80;;;15.40;99.90;;;;;;6157955;23;20009;-83
2022/11/03 11:07:50;;;;;;;10.30;1.80;;;15.40;99.90;;;;;;6183535;23;20019;-83
2022/11/03 11:10:17;;;;;;;8.20;1.52;;;15.40;99.90;;;;;;6209981;23;20082;-83
2022/11/03 11:13:02;;;;;;;11.63;2.08;;;15.40;99.90;;;;;;6209296;23;20012;-83
2022/11/03 11:15:42;;;;;;;10.13;1.67;;;15.50;99.90;;;;;;6209421;23;20058;-82
2022/11/03 11:18:08;;;;;;;11.18;2.53;;;15.50;99.90;;;;;;6209730;23;20059;-82
2022/11/03 11:20:36;;;;;;;9.88;1.92;;;15.50;99.90;;;;;;6208796;23;20017;-82
2022/11/03 11:23:27;;;;;;;9.57;1.83;;;15.60;99.90;;;;;;6183408;23;20059;-82
2022/11/03 11:26:07;;;;;;;14.07;2.20;;;15.80;99.90;;;;;;6209239;23;20024;-82
2022/11/03 11:28:43;;;;;;;10.55;2.28;;;16.00;99.90;;;;;;6182050;23;20013;-82
2022/11/03 11:31:21;;;;;;;16.17;1.98;;;16.10;99.90;;;;;;6183509;23;20020;-83
2022/11/03 11:33:48;;;;;;;8.27;1.80;;;16.20;99.90;;;;;;6209799;23;20027;-82
2022/11/03 11:36:24;;;;;;;7.68;1.88;;;16.20;99.90;;;;;;6209995;23;20090;-82
2022/11/03 11:38:51;;;;;;;8.65;1.85;;;16.20;99.90;;;;;;6183752;23;20020;-82
2022/11/03 11:41:19;;;;;;;9.32;1.95;;;16.10;99.90;;;;;;6183022;23;20112;-83
2022/11/03 11:43:45;;;;;;;5.57;1.33;;;16.10;99.90;;;;;;6158465;23;20368;-83
2022/11/03 11:46:23;;;;;;;11.00;2.17;;;16.10;99.90;;;;;;6210091;23;20020;-83
2022/11/03 11:49:08;;;;;;;9.52;1.92;;;16.00;99.90;;;;;;6184364;23;20024;-83
2022/11/03 11:51:37;;;;;;;8.07;1.70;;;15.90;99.90;;;;;;6185458;23;20099;-83
2022/11/03 11:54:07;;;;;;;10.95;1.95;;;16.00;99.90;;;;;;6211156;23;20019;-83
2022/11/03 11:56:33;;;;;;;8.80;1.95;;;15.90;99.90;;;;;;6185518;23;20016;-83
2022/11/03 11:58:59;;;;;;;8.98;1.70;;;15.80;99.90;;;;;;6185200;23;20021;-83
2022/11/03 12:01:29;;;;;;;10.65;1.70;;;15.80;99.90;;;;;;6210540;23;20325;-83
2022/11/03 12:03:58;;;;;;;7.25;1.52;;;15.80;99.90;;;;;;6183710;23;20008;-83
2022/11/03 12:06:39;;;;;;;7.88;1.85;;;15.80;99.90;;;;;;6184356;23;20429;-83
2022/11/03 12:09:05;;;;;;;5.75;1.70;;;15.80;99.90;;;;;;6183420;23;20341;-82
2022/11/03 12:11:46;;;;;;;5.93;1.70;;;15.70;99.90;;;;;;6184996;23;20016;-83
2022/11/03 12:14:22;;;;;;;9.05;1.63;;;15.70;99.90;;;;;;6184376;23;20017;-83
2022/11/03 12:16:48;;;;;;;10.23;1.83;;;15.80;99.90;;;;;;6211573;23;20019;-84
2022/11/03 12:19:34;;;;;;;9.90;1.48;;;15.70;99.90;;;;;;6184667;23;20017;-83
2022/11/03 12:22:00;;;;;;;7.43;1.80;;;15.60;99.90;;;;;;6185631;23;20017;-83
2022/11/03 12:24:47;;;;;;;8.40;2.40;;;15.60;99.90;;;;;;6211473;23;20052;-84
2022/11/03 12:27:24;;;;;;;11.23;1.90;;;15.60;99.90;;;;;;6211612;23;20091;-83
2022/11/03 12:29:58;;;;;;;9.10;2.65;;;15.60;99.90;;;;;;6185156;23;20453;-83
2022/11/03 12:32:24;;;;;;;9.25;2.08;;;15.60;99.90;;;;;;6185173;23;20457;-83
2022/11/03 12:34:49;;;;;;;9.55;1.88;;;15.50;99.90;;;;;;6213896;23;20012;-84
2022/11/03 12:37:15;;;;;;;9.60;2.08;;;15.50;99.90;;;;;;6184582;23;20017;-84
2022/11/03 12:39:41;;;;;;;8.10;2.17;;;15.50;99.90;;;;;;6178615;23;20024;-83
2022/11/03 12:42:07;;;;;;;6.53;1.83;;;15.50;99.90;;;;;;6183433;23;20031;-83
2022/11/03 12:44:33;;;;;;;8.27;1.60;;;15.50;99.90;;;;;;6182520;23;20024;-83
2022/11/03 12:47:00;;;;;;;9.13;1.70;;;15.60;99.90;;;;;;6180372;23;20017;-83
2022/11/03 12:49:25;;;;;;;7.75;2.20;;;15.40;99.90;;;;;;6155169;23;20242;-83
2022/11/03 12:51:51;;;;;;;9.73;1.95;;;15.40;99.90;;;;;;6181537;23;20012;-84
2022/11/03 12:54:17;;;;;;;13.10;2.55;;;15.40;99.90;;;;;;6180899;23;20059;-84
2022/11/03 12:56:43;;;;;;;9.23;2.47;;;15.40;99.90;;;;;;6177994;23;20442;-83
2022/11/03 12:59:08;;;;;;;9.05;1.63;;;15.40;99.90;;;;;;6178378;23;20040;-86
2022/11/03 13:01:34;;;;;;;12.63;1.67;;;15.30;99.90;;;;;;6180027;23;20092;-85
2022/11/03 13:04:00;;;;;;;6.28;1.58;;;15.30;99.90;;;;;;6182332;23;20089;-87
2022/11/03 13:06:26;;;;;;;6.95;2.20;;;15.40;99.90;;;;;;6180953;23;20080;-83
2022/11/03 13:08:52;;;;;;;9.70;1.65;;;15.50;99.90;;;;;;6180045;23;20009;-83
2022/11/03 13:14:03;;;;;;;;;;;15.70;99.90;;;;;;6205366;23;20018;-84
2022/11/03 13:16:29;;;;;;;7.45;1.50;;;15.80;99.90;;;;;;6203838;23;19916;-83